Time;durP1;ratioP1;P1;durP2;ratioP2;P2;SDS_P1;SDS_P2;PMS_P1;PMS_P2;Temp;Humidity;BMP_temperature;BMP_pressure;BME280_temperature;BME280_humidity;BME280_pressure;Samples;Min_cycle;Max_cycle;Signal;HPM_P1;HPM_P2
2022/01/09 00:00:41;;;;;;;;;;;5.70;90.50;;;;;;5021681;28;19909;-73
2022/01/09 00:03:08;;;;;;;;;;;5.70;90.60;;;;;;5021414;28;19917;-74
2022/01/09 00:05:33;;;;;;;;;;;5.70;90.70;;;;;;5021678;28;19909;-74
2022/01/09 00:07:59;;;;;;;;;;;5.70;90.60;;;;;;5021365;28;20277;-74
2022/01/09 00:10:30;;;;;;;;;;;5.70;90.60;;;;;;5021245;28;20389;-73
2022/01/09 00:12:58;;;;;;;;;;;5.70;90.60;;;;;;5021056;28;20055;-73
2022/01/09 00:15:24;;;;;;;;;;;5.70;90.60;;;;;;5021440;28;19910;-73
2022/01/09 00:17:49;;;;;;;;;;;5.70;90.70;;;;;;5021433;28;19910;-73
2022/01/09 00:20:15;;;;;;;;;;;5.70;90.80;;;;;;5019930;28;19913;-74
2022/01/09 00:25:07;;;;;;;;;;;5.70;91.00;;;;;;5021121;28;20308;-74
2022/01/09 00:27:32;;;;;;;;;;;5.70;91.00;;;;;;5020872;28;19916;-74
2022/01/09 00:29:58;;;;;;;;;;;5.70;90.90;;;;;;5021330;28;20273;-74
2022/01/09 00:32:24;;;;;;;;;;;5.70;91.00;;;;;;5020911;28;20429;-73
2022/01/09 00:34:50;;;;;;;;;;;5.70;91.00;;;;;;5021160;28;20285;-73
2022/01/09 00:37:15;;;;;;;;;;;5.80;91.30;;;;;;5021037;28;20351;-74
2022/01/09 00:39:41;;;;;;;;;;;5.80;90.90;;;;;;5020844;28;19976;-74
2022/01/09 00:42:06;;;;;;;;;;;5.70;90.90;;;;;;5020464;28;20012;-73
2022/01/09 00:44:32;;;;;;;;;;;5.70;90.90;;;;;;5019555;28;19951;-73
2022/01/09 00:47:00;;;;;;;;;;;5.70;90.90;;;;;;5022451;28;20273;-73
2022/01/09 00:49:26;;;;;;;;;;;5.70;90.90;;;;;;5020911;28;19964;-73
2022/01/09 00:51:51;;;;;;;;;;;5.70;91.00;;;;;;5020631;28;19957;-74
2022/01/09 00:54:17;;;;;;;;;;;5.70;91.00;;;;;;5019034;28;19920;-73
2022/01/09 00:56:43;;;;;;;;;;;5.70;91.10;;;;;;5019578;28;19909;-73
2022/01/09 00:59:08;;;;;;;;;;;5.70;91.10;;;;;;5020829;28;19910;-73
2022/01/09 01:01:34;;;;;;;;;;;5.60;91.10;;;;;;5020547;28;19910;-73
2022/01/09 01:04:00;;;;;;;;;;;5.60;91.10;;;;;;5020607;28;19909;-73
2022/01/09 01:06:25;;;;;;;;;;;5.70;91.10;;;;;;5020415;28;19909;-73
2022/01/09 01:08:51;;;;;;;;;;;5.60;91.10;;;;;;5020691;28;19910;-73
2022/01/09 01:11:16;;;;;;;;;;;5.70;91.10;;;;;;5019859;28;19909;-73
2022/01/09 01:13:42;;;;;;;;;;;5.70;91.10;;;;;;5020389;28;19959;-73
2022/01/09 01:16:08;;;;;;;;;;;5.70;91.10;;;;;;5020293;28;19909;-73
2022/01/09 01:18:33;;;;;;;;;;;5.70;91.00;;;;;;5020345;28;19917;-73
2022/01/09 01:21:00;;;;;;;;;;;5.80;91.10;;;;;;5020349;28;20003;-73
2022/01/09 01:23:26;;;;;;;;;;;5.90;90.90;;;;;;5020292;28;19913;-73
2022/01/09 01:25:52;;;;;;;;;;;5.90;90.80;;;;;;5019715;28;20399;-73
2022/01/09 01:28:18;;;;;;;;;;;5.90;90.80;;;;;;5019942;28;19925;-73
2022/01/09 01:30:44;;;;;;;;;;;5.90;90.80;;;;;;5019976;28;19933;-73
2022/01/09 01:33:10;;;;;;;;;;;5.90;90.80;;;;;;5032440;28;20338;-73
2022/01/09 01:35:35;;;;;;;;;;;5.90;90.80;;;;;;5020448;28;20420;-73
2022/01/09 01:38:01;;;;;;;;;;;5.90;90.80;;;;;;5019884;28;19909;-73
2022/01/09 01:40:27;;;;;;;;;;;5.80;90.80;;;;;;5019521;28;19916;-73
2022/01/09 01:42:52;;;;;;;;;;;5.80;90.90;;;;;;5019709;28;19909;-73
2022/01/09 01:45:18;;;;;;;;;;;5.80;91.00;;;;;;5019730;28;20403;-73
2022/01/09 01:47:44;;;;;;;;;;;5.80;91.10;;;;;;5020987;28;20265;-73
2022/01/09 01:50:12;;;;;;;;;;;5.90;91.10;;;;;;5019466;28;19909;-73
2022/01/09 01:52:42;;;;;;;;;;;5.90;91.10;;;;;;5019663;28;19968;-73
2022/01/09 01:55:08;;;;;;;;;;;5.90;91.10;;;;;;5019388;28;20349;-74
2022/01/09 01:57:35;;;;;;;;;;;6.00;91.00;;;;;;5019263;28;19913;-74
2022/01/09 02:00:00;;;;;;;;;;;6.00;90.90;;;;;;5019704;28;19916;-74
2022/01/09 02:02:26;;;;;;;;;;;6.00;90.90;;;;;;5019465;28;19910;-74
2022/01/09 02:04:52;;;;;;;;;;;6.10;90.80;;;;;;5018696;28;19920;-74
2022/01/09 02:07:18;;;;;;;;;;;6.10;90.80;;;;;;5019436;28;19910;-74
2022/01/09 02:09:44;;;;;;;;;;;6.10;90.80;;;;;;5019320;28;19959;-75
2022/01/09 02:12:10;;;;;;;;;;;6.20;90.80;;;;;;5018908;28;19956;-74
2022/01/09 02:14:36;;;;;;;;;;;6.20;91.00;;;;;;5019213;28;19909;-75
2022/01/09 02:17:03;;;;;;;;;;;6.20;91.00;;;;;;5019215;28;19909;-75
2022/01/09 02:19:28;;;;;;;;;;;6.30;91.20;;;;;;5019136;28;19910;-75
2022/01/09 02:21:56;;;;;;;;;;;6.30;91.20;;;;;;5019007;28;19921;-75
2022/01/09 02:24:23;;;;;;;;;;;6.30;91.20;;;;;;5018744;28;19909;-75
2022/01/09 02:26:50;;;;;;;;;;;6.30;91.20;;;;;;5018732;28;19972;-75
2022/01/09 02:29:16;;;;;;;;;;;6.30;91.20;;;;;;5018972;28;19909;-75
2022/01/09 02:31:42;;;;;;;;;;;6.30;91.10;;;;;;5019237;28;19979;-75
2022/01/09 02:34:08;;;;;;;;;;;6.30;91.10;;;;;;5031352;28;19913;-75
2022/01/09 02:36:34;;;;;;;;;;;6.30;91.10;;;;;;5018770;28;19938;-74
2022/01/09 02:39:00;;;;;;;;;;;6.20;91.20;;;;;;5018736;28;20000;-75
2022/01/09 02:41:25;;;;;;;;;;;6.20;91.20;;;;;;5018237;28;20281;-75
2022/01/09 02:43:51;;;;;;;;;;;6.10;91.30;;;;;;5018682;28;19916;-75
2022/01/09 02:46:31;;;;;;;;;;;6.10;91.30;;;;;;5019933;28;19996;-75
2022/01/09 02:48:57;;;;;;;;;;;6.00;91.30;;;;;;5017298;28;20368;-75
2022/01/09 02:51:24;;;;;;;;;;;6.00;91.40;;;;;;5018610;28;19917;-74
2022/01/09 02:53:56;;;;;;;;;;;6.00;91.50;;;;;;5018349;28;19920;-75
2022/01/09 02:56:22;;;;;;;;;;;6.00;91.60;;;;;;5018131;28;19914;-75
2022/01/09 02:58:48;;;;;;;;;;;6.00;91.80;;;;;;5018522;28;19972;-74
2022/01/09 03:01:13;;;;;;;;;;;6.10;91.80;;;;;;5018380;28;20008;-75
2022/01/09 03:03:39;;;;;;;;;;;6.10;91.70;;;;;;5018675;28;19955;-75
2022/01/09 03:06:07;;;;;;;;;;;6.20;91.80;;;;;;5018173;28;19956;-75
2022/01/09 03:08:33;;;;;;;;;;;6.20;91.80;;;;;;5018520;28;19945;-75
2022/01/09 03:10:59;;;;;;;;;;;6.30;92.00;;;;;;5017817;28;19909;-75
2022/01/09 03:13:24;;;;;;;;;;;6.30;92.00;;;;;;5018104;28;19918;-75
2022/01/09 03:15:50;;;;;;;;;;;6.30;91.90;;;;;;5018463;28;20581;-75
2022/01/09 03:18:16;;;;;;;;;;;6.30;91.90;;;;;;5018232;28;19957;-76
2022/01/09 03:20:41;;;;;;;;;;;6.30;91.90;;;;;;5018111;28;20288;-76
2022/01/09 03:23:08;;;;;;;;;;;6.20;91.90;;;;;;5018389;28;19917;-75
2022/01/09 03:25:34;;;;;;;;;;;6.20;91.90;;;;;;5017636;28;19932;-75
2022/01/09 03:27:59;;;;;;;;;;;6.20;91.90;;;;;;5018161;28;19917;-75
2022/01/09 03:30:26;;;;;;;;;;;6.20;91.90;;;;;;5018086;28;19909;-76
2022/01/09 03:32:52;;;;;;;;;;;6.30;92.10;;;;;;5018817;28;19952;-75
2022/01/09 03:35:19;;;;;;;;;;;6.30;92.00;;;;;;5017995;28;19971;-75
2022/01/09 03:37:46;;;;;;;;;;;6.30;91.90;;;;;;5018513;28;19914;-75
2022/01/09 03:40:13;;;;;;;;;;;6.30;91.90;;;;;;5017709;28;19959;-74
2022/01/09 03:42:38;;;;;;;;;;;6.30;92.00;;;;;;5018027;28;19910;-74
2022/01/09 03:45:04;;;;;;;;;;;6.40;91.90;;;;;;5017860;28;19920;-75
2022/01/09 03:47:30;;;;;;;;;;;6.40;92.00;;;;;;5020078;28;20273;-75
2022/01/09 03:49:56;;;;;;;;;;;6.40;92.10;;;;;;5017698;28;19916;-75
2022/01/09 03:52:27;;;;;;;;;;;6.50;92.10;;;;;;5017795;28;19914;-74
2022/01/09 03:54:53;;;;;;;;;;;6.50;92.10;;;;;;5017598;28;19913;-75
2022/01/09 03:57:19;;;;;;;;;;;6.50;92.00;;;;;;5017597;28;19917;-75
2022/01/09 03:59:44;;;;;;;;;;;6.60;92.10;;;;;;5017989;28;20304;-75
2022/01/09 04:02:10;;;;;;;;;;;6.60;92.00;;;;;;5017768;28;20361;-75
2022/01/09 04:04:36;;;;;;;;;;;6.60;92.00;;;;;;5017698;28;19912;-75
2022/01/09 04:07:01;;;;;;;;;;;6.50;92.00;;;;;;5017788;28;19909;-75
2022/01/09 04:09:37;;;;;;;;;;;6.50;92.00;;;;;;5017512;28;19909;-75
2022/01/09 04:12:04;;;;;;;;;;;6.50;91.90;;;;;;5017210;28;19910;-75
2022/01/09 04:14:29;;;;;;;;;;;6.40;91.90;;;;;;5016387;28;19910;-75
2022/01/09 04:16:55;;;;;;;;;;;6.30;91.90;;;;;;5017818;28;19964;-75
2022/01/09 04:19:21;;;;;;;;;;;6.30;91.90;;;;;;5017574;28;19917;-75
2022/01/09 04:21:46;;;;;;;;;;;6.30;92.10;;;;;;5017557;28;19910;-75
2022/01/09 04:24:12;;;;;;;;;;;6.20;92.20;;;;;;5017573;28;19960;-75
2022/01/09 04:26:38;;;;;;;;;;;6.20;92.40;;;;;;5017374;28;19914;-75
2022/01/09 04:29:04;;;;;;;;;;;6.20;92.60;;;;;;5020557;28;19932;-75
2022/01/09 04:31:32;;;;;;;;;;;6.20;92.70;;;;;;5020593;28;20234;-75
2022/01/09 04:33:57;;;;;;;;;;;6.20;92.70;;;;;;5033504;28;19913;-75
2022/01/09 04:36:23;;;;;;;;;;;6.20;92.70;;;;;;5021052;28;20403;-75
2022/01/09 04:38:49;;;;;;;;;;;6.30;92.80;;;;;;5020872;28;20483;-75
2022/01/09 04:41:15;;;;;;;;;;;6.30;92.90;;;;;;5020645;28;19920;-75
2022/01/09 04:43:42;;;;;;;;;;;6.40;92.80;;;;;;5020675;28;19909;-75
2022/01/09 04:46:09;;;;;;;;;;;6.40;92.80;;;;;;5021485;28;20004;-75
2022/01/09 04:48:35;;;;;;;;;;;6.40;92.80;;;;;;5019874;28;19916;-75
2022/01/09 04:51:01;;;;;;;;;;;6.50;92.80;;;;;;5020722;28;20577;-75
2022/01/09 04:53:26;;;;;;;;;;;6.60;92.80;;;;;;5020417;28;20328;-75
2022/01/09 04:55:52;;;;;;;;;;;6.60;92.90;;;;;;5020262;28;20361;-75
2022/01/09 04:58:18;;;;;;;;;;;6.60;92.70;;;;;;5020458;28;20384;-75
2022/01/09 05:00:44;;;;;;;;;;;6.50;92.70;;;;;;5020628;28;19916;-74
2022/01/09 05:03:12;;;;;;;;;;;6.50;92.70;;;;;;5020393;28;19940;-75
2022/01/09 05:05:37;;;;;;;;;;;6.40;92.70;;;;;;5020716;28;19910;-75
2022/01/09 05:08:03;;;;;;;;;;;6.30;92.80;;;;;;5020294;28;19910;-75
2022/01/09 05:10:29;;;;;;;;;;;6.30;92.80;;;;;;5020196;28;19909;-75
2022/01/09 05:12:54;;;;;;;;;;;6.20;92.90;;;;;;5020364;28;19961;-75
2022/01/09 05:15:21;;;;;;;;;;;6.10;92.90;;;;;;5020497;28;20017;-75
2022/01/09 05:17:47;;;;;;;;;;;6.10;93.00;;;;;;5020294;28;19909;-75
2022/01/09 05:20:12;;;;;;;;;;;5.90;93.00;;;;;;5018905;28;19916;-75
2022/01/09 05:22:38;;;;;;;;;;;5.90;93.10;;;;;;5019981;28;19996;-75
2022/01/09 05:25:06;;;;;;;;;;;5.90;93.10;;;;;;5018527;28;20338;-75
2022/01/09 05:27:32;;;;;;;;;;;5.80;93.20;;;;;;5019848;28;20284;-74
2022/01/09 05:29:58;;;;;;;;;;;5.80;93.40;;;;;;5020156;28;19933;-75
2022/01/09 05:32:23;;;;;;;;;;;5.80;93.60;;;;;;5019811;28;20296;-75
2022/01/09 05:34:49;;;;;;;;;;;5.80;93.60;;;;;;5020398;28;19910;-75
2022/01/09 05:37:15;;;;;;;;;;;5.70;93.60;;;;;;5019730;28;19957;-75
2022/01/09 05:39:40;;;;;;;;;;;5.70;93.60;;;;;;5018872;28;19909;-75
2022/01/09 05:42:07;;;;;;;;;;;5.70;93.60;;;;;;5018038;28;19952;-75
2022/01/09 05:44:33;;;;;;;;;;;5.60;93.60;;;;;;5019658;28;19921;-75
2022/01/09 05:46:59;;;;;;;;;;;5.60;93.70;;;;;;5021191;28;20003;-75
2022/01/09 05:49:25;;;;;;;;;;;5.60;93.70;;;;;;5019888;28;19914;-75
2022/01/09 05:51:51;;;;;;;;;;;5.60;93.80;;;;;;5020001;28;19909;-75
2022/01/09 05:54:16;;;;;;;;;;;5.60;93.90;;;;;;5019356;28;19939;-75
2022/01/09 05:56:42;;;;;;;;;;;5.60;93.90;;;;;;5017904;28;19909;-75
2022/01/09 05:59:07;;;;;;;;;;;5.60;94.10;;;;;;5019802;28;19909;-75
2022/01/09 06:01:34;;;;;;;;;;;5.60;94.20;;;;;;5019602;28;19910;-75
2022/01/09 06:04:00;;;;;;;;;;;5.60;94.30;;;;;;5019312;28;20000;-75
2022/01/09 06:06:25;;;;;;;;;;;5.60;94.40;;;;;;5019289;28;19910;-75
2022/01/09 06:08:51;;;;;;;;;;;5.60;94.40;;;;;;5019459;28;19909;-75
2022/01/09 06:11:17;;;;;;;;;;;5.60;94.40;;;;;;5018997;28;19963;-75
2022/01/09 06:13:42;;;;;;;;;;;5.60;94.50;;;;;;5019141;28;19913;-75
2022/01/09 06:16:08;;;;;;;;;;;5.60;94.50;;;;;;5019160;28;19909;-75
2022/01/09 06:18:34;;;;;;;;;;;5.60;94.50;;;;;;5019147;28;20428;-75
2022/01/09 06:21:00;;;;;;;;;;;5.60;94.40;;;;;;5019104;28;19909;-75
2022/01/09 06:23:25;;;;;;;;;;;5.60;94.50;;;;;;5019025;28;20403;-76
2022/01/09 06:25:53;;;;;;;;;;;5.60;94.50;;;;;;5018814;28;19929;-75
2022/01/09 06:28:19;;;;;;;;;;;5.70;94.60;;;;;;5018958;28;19960;-75
2022/01/09 06:30:45;;;;;;;;;;;5.70;94.60;;;;;;5017430;28;19913;-75
2022/01/09 06:33:11;;;;;;;;;;;5.70;94.50;;;;;;5029914;28;19913;-75
2022/01/09 06:35:37;;;;;;;;;;;5.70;94.30;;;;;;5019218;28;19937;-75
2022/01/09 06:38:03;;;;;;;;;;;5.70;94.20;;;;;;5018926;28;19917;-75
2022/01/09 06:40:29;;;;;;;;;;;5.70;94.20;;;;;;5018228;28;19909;-75
2022/01/09 06:42:55;;;;;;;;;;;5.60;94.20;;;;;;5018833;28;19964;-75
2022/01/09 06:45:23;;;;;;;;;;;5.70;94.40;;;;;;5018520;28;19913;-75
2022/01/09 06:47:48;;;;;;;;;;;5.60;94.30;;;;;;5019362;28;19909;-75
2022/01/09 06:50:15;;;;;;;;;;;5.60;94.40;;;;;;5018210;28;19916;-76
2022/01/09 06:52:41;;;;;;;;;;;5.60;94.50;;;;;;5018631;28;19913;-76
2022/01/09 06:55:07;;;;;;;;;;;5.60;94.60;;;;;;5018197;28;20359;-76
2022/01/09 06:57:32;;;;;;;;;;;5.60;94.70;;;;;;5018437;28;19917;-75
2022/01/09 06:59:58;;;;;;;;;;;5.70;94.70;;;;;;5016994;28;19914;-80
2022/01/09 07:02:24;;;;;;;;;;;5.70;94.70;;;;;;5017263;28;19913;-75
2022/01/09 07:04:49;;;;;;;;;;;5.80;94.80;;;;;;5017627;28;19906;-75
2022/01/09 07:07:15;;;;;;;;;;;5.80;94.80;;;;;;5016995;28;19909;-75
2022/01/09 07:09:41;;;;;;;;;;;5.90;95.10;;;;;;5018261;28;20012;-75
2022/01/09 07:12:08;;;;;;;;;;;5.90;95.10;;;;;;5016626;28;20395;-75
2022/01/09 07:14:33;;;;;;;;;;;5.90;95.20;;;;;;5018259;28;19918;-75
2022/01/09 07:17:00;;;;;;;;;;;5.90;95.10;;;;;;5018439;28;19910;-75
2022/01/09 07:19:25;;;;;;;;;;;6.00;95.00;;;;;;5018225;28;19920;-76
2022/01/09 07:21:51;;;;;;;;;;;5.90;94.80;;;;;;5018380;28;20276;-75
2022/01/09 07:24:16;;;;;;;;;;;5.90;94.80;;;;;;5017822;28;19909;-75
2022/01/09 07:26:42;;;;;;;;;;;5.90;94.90;;;;;;5018012;28;19914;-75
2022/01/09 07:29:08;;;;;;;;;;;5.90;94.90;;;;;;5018115;28;19910;-76
2022/01/09 07:31:34;;;;;;;;;;;5.90;95.00;;;;;;5018277;28;19917;-75
2022/01/09 07:33:59;;;;;;;;;;;5.90;94.90;;;;;;5029146;28;20293;-76
2022/01/09 07:36:25;;;;;;;;;;;5.90;94.80;;;;;;5018202;28;19909;-75
2022/01/09 07:38:51;;;;;;;;;;;5.80;94.70;;;;;;5016639;28;19916;-76
2022/01/09 07:41:17;;;;;;;;;;;5.80;94.70;;;;;;5017662;28;19944;-76
2022/01/09 07:43:43;;;;;;;;;;;5.70;94.90;;;;;;5017801;28;19909;-76
2022/01/09 07:46:08;;;;;;;;;;;5.70;94.70;;;;;;5018695;28;20396;-76
2022/01/09 07:48:34;;;;;;;;;;;5.60;94.60;;;;;;5018261;28;19953;-76
2022/01/09 07:51:00;;;;;;;;;;;5.60;94.60;;;;;;5016576;28;19909;-76
2022/01/09 07:53:25;;;;;;;;;;;5.60;94.90;;;;;;5017642;28;19921;-76
2022/01/09 07:55:52;;;;;;;;;;;5.60;95.10;;;;;;5017422;28;19909;-76
2022/01/09 07:58:17;;;;;;;;;;;5.60;95.30;;;;;;5017820;28;19916;-75
2022/01/09 08:00:43;;;;;;;;;;;5.60;95.30;;;;;;5016514;28;19909;-75
2022/01/09 08:03:10;;;;;;;;;;;5.70;95.40;;;;;;5019459;28;19952;-75
2022/01/09 08:05:35;;;;;;;;;;;5.70;95.40;;;;;;5020613;28;19973;-75
2022/01/09 08:08:01;;;;;;;;;;;5.70;95.50;;;;;;5020181;28;20397;-76
2022/01/09 08:10:26;;;;;;;;;;;5.80;95.50;;;;;;5021331;28;20001;-76
2022/01/09 08:12:52;;;;;;;;;;;5.80;95.40;;;;;;5021227;28;20047;-76
2022/01/09 08:15:18;;;;;;;;;;;5.80;95.40;;;;;;5020157;28;20008;-76
2022/01/09 08:17:45;;;;;;;;;;;5.80;95.50;;;;;;5019934;28;19910;-76
2022/01/09 08:20:11;;;;;;;;;;;5.90;95.60;;;;;;5021433;28;19909;-76
2022/01/09 08:22:38;;;;;;;;;;;5.90;95.70;;;;;;5021106;28;19910;-76
2022/01/09 08:25:05;;;;;;;;;;;6.00;95.70;;;;;;5019533;28;20358;-76
2022/01/09 08:27:31;;;;;;;;;;;6.00;95.70;;;;;;5021043;28;20008;-76
2022/01/09 08:29:57;;;;;;;;;;;6.10;95.70;;;;;;5021325;28;19940;-75
2022/01/09 08:32:22;;;;;;;;;;;6.10;95.90;;;;;;5021399;28;19910;-78
2022/01/09 08:34:48;;;;;;;;;;;6.20;95.60;;;;;;5021074;28;19931;-74
2022/01/09 08:37:14;;;;;;;;;;;6.20;95.50;;;;;;5020887;28;19916;-74
2022/01/09 08:39:40;;;;;;;;;;;6.20;95.40;;;;;;5021026;28;19961;-75
2022/01/09 08:42:06;;;;;;;;;;;6.30;95.50;;;;;;5020414;28;20000;-75
2022/01/09 08:44:32;;;;;;;;;;;6.30;95.50;;;;;;5021118;28;19953;-75
2022/01/09 08:46:57;;;;;;;;;;;6.40;95.50;;;;;;5022207;28;19910;-75
2022/01/09 08:49:23;;;;;;;;;;;6.40;95.40;;;;;;5019489;28;19909;-75
2022/01/09 08:51:49;;;;;;;;;;;6.40;95.30;;;;;;5020537;28;19909;-75
2022/01/09 08:54:14;;;;;;;;;;;6.40;95.30;;;;;;5020446;28;19917;-75
2022/01/09 08:56:41;;;;;;;;;;;6.40;95.40;;;;;;5020332;28;19909;-75
2022/01/09 08:59:06;;;;;;;;;;;6.50;95.40;;;;;;5020618;28;19909;-75
2022/01/09 09:01:32;;;;;;;;;;;6.50;95.40;;;;;;5020659;28;19909;-75
2022/01/09 09:03:58;;;;;;;;;;;6.50;95.30;;;;;;5019131;28;19956;-74
2022/01/09 09:06:23;;;;;;;;;;;6.60;95.30;;;;;;5020342;28;19964;-75
2022/01/09 09:08:49;;;;;;;;;;;6.60;95.30;;;;;;5020323;28;19910;-74
2022/01/09 09:11:15;;;;;;;;;;;6.70;95.20;;;;;;5019994;28;19914;-74
2022/01/09 09:13:40;;;;;;;;;;;6.70;95.10;;;;;;5020259;28;19913;-74
2022/01/09 09:16:08;;;;;;;;;;;6.80;95.00;;;;;;5020118;28;19916;-74
2022/01/09 09:18:34;;;;;;;;;;;6.90;94.90;;;;;;5018975;28;19910;-75
2022/01/09 09:20:59;;;;;;;;;;;6.90;94.80;;;;;;5020309;28;19909;-74
2022/01/09 09:23:25;;;;;;;;;;;6.90;94.60;;;;;;5020225;28;19913;-74
2022/01/09 09:25:51;;;;;;;;;;;7.00;94.50;;;;;;5018157;28;20012;-74
2022/01/09 09:28:17;;;;;;;;;;;7.10;94.50;;;;;;5020161;28;19996;-74
2022/01/09 09:30:43;;;;;;;;;;;7.20;94.60;;;;;;5020061;28;20368;-74
2022/01/09 09:33:08;;;;;;;;;;;7.40;94.50;;;;;;5032053;28;19983;-74
2022/01/09 09:35:34;;;;;;;;;;;7.50;94.20;;;;;;5020241;28;19910;-74
2022/01/09 09:38:00;;;;;;;;;;;7.60;93.70;;;;;;5020027;28;20319;-74
2022/01/09 09:40:26;;;;;;;;;;;7.60;93.50;;;;;;5018086;28;19909;-74
2022/01/09 09:42:52;;;;;;;;;;;7.70;93.40;;;;;;5018478;28;19933;-74
2022/01/09 09:45:18;;;;;;;;;;;7.70;93.30;;;;;;5019615;28;19956;-74
2022/01/09 09:47:43;;;;;;;;;;;7.80;93.00;;;;;;5020675;28;19916;-74
2022/01/09 09:50:11;;;;;;;;;;;7.80;92.90;;;;;;5019505;28;20269;-75
2022/01/09 09:52:37;;;;;;;;;;;7.80;92.80;;;;;;5019470;28;19976;-74
2022/01/09 09:55:03;;;;;;;;;;;7.80;92.70;;;;;;5018972;28;20357;-74
2022/01/09 09:57:28;;;;;;;;;;;7.70;92.70;;;;;;5019687;28;19913;-74
2022/01/09 10:00:14;;;;;;;;;;;7.80;92.80;;;;;;5019612;28;20062;-74
2022/01/09 10:02:41;;;;;;;;;;;7.70;92.90;;;;;;5018827;28;19937;-74
2022/01/09 10:05:07;;;;;;;;;;;7.80;93.00;;;;;;5019609;28;19972;-74
2022/01/09 10:07:33;;;;;;;;;;;7.80;93.10;;;;;;5019308;28;19910;-74
2022/01/09 10:10:00;;;;;;;;;;;7.90;93.10;;;;;;5019082;28;19910;-74
2022/01/09 10:12:26;;;;;;;;;;;7.90;93.00;;;;;;5018994;28;19916;-74
2022/01/09 10:14:53;;;;;;;;;;;8.10;92.90;;;;;;5017941;28;19992;-74
2022/01/09 10:17:21;;;;;;;;;;;8.20;92.90;;;;;;5019045;28;19917;-74
2022/01/09 10:19:49;;;;;;;;;;;8.40;92.70;;;;;;5018470;28;19910;-74
2022/01/09 10:22:24;;;;;;;;;;;8.60;92.20;;;;;;5018863;28;20419;-74
2022/01/09 10:24:49;;;;;;;;;;;8.80;91.90;;;;;;5018461;28;20000;-74
2022/01/09 10:27:27;;;;;;;;;;;9.00;91.50;;;;;;5018521;28;19914;-74
2022/01/09 10:29:53;;;;;;;;;;;9.20;91.30;;;;;;5017661;28;19909;-74
2022/01/09 10:32:20;;;;;;;;;;;9.50;91.20;;;;;;5024019;28;19915;-74
2022/01/09 10:35:04;;;;;;;;;;;9.80;91.00;;;;;;5026266;28;19913;-74
2022/01/09 10:37:29;;;;;;;;;;;10.20;90.50;;;;;;5018943;28;19909;-73
2022/01/09 10:40:00;;;;;;;;;;;10.50;90.00;;;;;;5018483;28;19914;-74
2022/01/09 10:42:26;;;;;;;;;;;10.90;88.20;;;;;;5018932;28;19910;-74
2022/01/09 10:44:52;;;;;;;;;;;11.10;86.30;;;;;;5018602;28;19917;-74
2022/01/09 10:47:18;;;;;;;;;;;11.30;85.10;;;;;;5019454;28;19932;-74
2022/01/09 10:49:46;;;;;;;;;;;11.50;84.70;;;;;;5018507;28;19913;-74
2022/01/09 10:52:13;;;;;;;;;;;11.60;83.50;;;;;;5018544;28;20273;-74
2022/01/09 10:54:41;;;;;;;;;;;11.70;83.10;;;;;;5018108;28;19919;-74
2022/01/09 10:57:11;;;;;;;;;;;11.60;82.70;;;;;;5018348;28;19917;-74
2022/01/09 10:59:37;;;;;;;;;;;11.60;82.10;;;;;;5018365;28;19909;-74
2022/01/09 11:02:03;;;;;;;;;;;11.50;82.20;;;;;;5018618;28;20398;-74
2022/01/09 11:04:29;;;;;;;;;;;11.50;81.90;;;;;;5018393;28;19940;-74
2022/01/09 11:06:55;;;;;;;;;;;11.50;82.20;;;;;;5018365;28;20353;-74
2022/01/09 11:09:24;;;;;;;;;;;11.40;83.90;;;;;;5018123;28;19909;-74
2022/01/09 11:11:50;;;;;;;;;;;11.40;82.90;;;;;;5018238;28;19917;-74
2022/01/09 11:14:19;;;;;;;;;;;11.40;82.80;;;;;;5017975;28;19914;-74
2022/01/09 11:16:52;;;;;;;;;;;11.20;82.40;;;;;;5018200;28;19917;-74
2022/01/09 11:19:19;;;;;;;;;;;11.10;83.00;;;;;;5018015;28;19909;-74
2022/01/09 11:21:46;;;;;;;;;;;11.00;84.00;;;;;;5018491;28;19952;-74
2022/01/09 11:24:30;;;;;;;;;;;10.90;84.20;;;;;;5017780;28;19910;-75
2022/01/09 11:26:56;;;;;;;;;;;10.80;83.80;;;;;;5017661;28;19913;-74
2022/01/09 11:29:36;;;;;;;;;;;10.70;83.90;;;;;;5018337;28;19920;-74
2022/01/09 11:32:28;;;;;;;;;;;10.60;84.70;;;;;;5021004;28;19909;-74
2022/01/09 11:34:53;;;;;;;;;;;10.50;85.60;;;;;;5021196;28;20270;-74
2022/01/09 11:37:27;;;;;;;;;;;10.50;85.80;;;;;;5018842;28;19951;-74
2022/01/09 11:39:52;;;;;;;;;;;10.40;85.40;;;;;;5021801;28;20376;-74
2022/01/09 11:42:18;;;;;;;;;;;10.40;85.50;;;;;;5021960;28;19932;-74
2022/01/09 11:44:48;;;;;;;;;;;10.30;85.40;;;;;;5020585;28;19909;-74
2022/01/09 11:47:13;;;;;;;;;;;10.30;85.90;;;;;;5022068;28;19914;-74
2022/01/09 11:49:39;;;;;;;;;;;10.30;86.80;;;;;;5021895;28;19937;-74
2022/01/09 11:52:05;;;;;;;;;;;10.20;87.00;;;;;;5021887;28;19916;-74
2022/01/09 11:54:48;;;;;;;;;;;10.20;86.50;;;;;;5021621;28;19913;-74
2022/01/09 11:57:20;;;;;;;;;;;10.30;87.10;;;;;;5020414;28;20287;-74
2022/01/09 11:59:48;;;;;;;;;;;10.30;86.70;;;;;;5021790;28;19910;-74
2022/01/09 12:02:16;;;;;;;;;;;10.40;86.40;;;;;;5021746;28;19910;-74
2022/01/09 12:04:45;;;;;;;;;;;10.40;86.60;;;;;;5020199;28;19910;-74
2022/01/09 12:07:29;;;;;;;;;;;10.40;86.70;;;;;;5022058;28;20261;-74
2022/01/09 12:09:55;;;;;;;;;;;10.40;86.70;;;;;;5021224;28;19913;-74
2022/01/09 12:12:22;;;;;;;;;;;10.30;86.90;;;;;;5021335;28;19913;-74
2022/01/09 12:14:54;;;;;;;;;;;10.20;86.90;;;;;;5021593;28;20368;-73
2022/01/09 12:17:23;;;;;;;;;;;10.10;87.80;;;;;;5021750;28;19943;-73
2022/01/09 12:20:07;;;;;;;;;;;10.00;88.10;;;;;;5021333;28;19909;-73
2022/01/09 12:22:39;;;;;;;;;;;10.00;88.50;;;;;;5021336;28;19909;-73
2022/01/09 12:25:33;;;;;;;;;;;10.00;89.00;;;;;;5020822;28;19932;-73
2022/01/09 12:28:01;;;;;;;;;;;10.00;89.20;;;;;;5021243;28;19914;-73
2022/01/09 12:30:30;;;;;;;;;;;9.90;89.50;;;;;;5020982;28;19921;-73
2022/01/09 12:32:59;;;;;;;;;;;9.90;89.70;;;;;;5021025;28;19917;-73
2022/01/09 12:35:24;;;;;;;;;;;9.80;89.40;;;;;;5021315;28;19909;-74
2022/01/09 12:37:54;;;;;;;;;;;9.80;89.20;;;;;;5021265;28;19910;-74
2022/01/09 12:40:24;;;;;;;;;;;9.80;89.60;;;;;;5020505;28;19910;-73
2022/01/09 12:42:53;;;;;;;;;;;9.70;89.90;;;;;;5021042;28;19924;-73
2022/01/09 12:45:23;;;;;;;;;;;9.70;90.00;;;;;;5020990;28;19910;-73
2022/01/09 12:47:49;;;;;;;;;;;9.60;90.00;;;;;;5022190;28;19909;-73
2022/01/09 12:50:15;;;;;;;;;;;9.60;90.10;;;;;;5020589;28;20391;-74
2022/01/09 12:52:41;;;;;;;;;;;9.70;90.20;;;;;;5020752;28;19910;-74
2022/01/09 12:55:08;;;;;;;;;;;9.60;90.30;;;;;;5020244;28;19920;-74
2022/01/09 12:57:53;;;;;;;;;;;9.60;90.40;;;;;;5020630;28;19960;-74
2022/01/09 13:00:29;;;;;;;;;;;9.60;90.50;;;;;;5020785;28;19960;-74
2022/01/09 13:02:58;;;;;;;;;;;9.60;90.50;;;;;;5020411;28;19957;-74
2022/01/09 13:05:24;;;;;;;;;;;9.60;90.60;;;;;;5020707;28;19909;-74
2022/01/09 13:07:56;;;;;;;;;;;9.60;90.60;;;;;;5020377;28;19964;-74
2022/01/09 13:10:27;;;;;;;;;;;9.60;90.60;;;;;;5020203;28;19909;-74
2022/01/09 13:12:59;;;;;;;;;;;9.70;90.70;;;;;;5020161;28;19914;-73
2022/01/09 13:15:34;;;;;;;;;;;9.70;90.80;;;;;;5020461;28;19960;-73
2022/01/09 13:18:00;;;;;;;;;;;9.80;90.70;;;;;;5020358;28;19964;-74
2022/01/09 13:20:26;;;;;;;;;;;9.80;91.00;;;;;;5020300;28;19913;-74
2022/01/09 13:23:02;;;;;;;;;;;9.80;90.70;;;;;;5019575;28;19909;-74
2022/01/09 13:25:28;;;;;;;;;;;9.80;90.60;;;;;;5018331;28;19928;-73
2022/01/09 13:27:53;;;;;;;;;;;9.90;90.60;;;;;;5020117;28;19909;-74
2022/01/09 13:30:22;;;;;;;;;;;9.90;90.60;;;;;;5020055;28;19910;-73
2022/01/09 13:32:48;;;;;;;;;;;9.90;90.60;;;;;;5029263;28;19913;-74
2022/01/09 13:35:13;;;;;;;;;;;9.90;90.70;;;;;;5023570;28;19917;-74
2022/01/09 13:37:40;;;;;;;;;;;9.90;90.70;;;;;;5020144;28;19909;-74
2022/01/09 13:40:06;;;;;;;;;;;9.90;90.80;;;;;;5019488;28;19960;-74
2022/01/09 13:42:33;;;;;;;;;;;9.90;90.80;;;;;;5020139;28;19956;-74
2022/01/09 13:45:05;;;;;;;;;;;9.90;90.90;;;;;;5019695;28;19916;-73
2022/01/09 13:47:30;;;;;;;;;;;9.80;90.90;;;;;;5021607;28;19910;-74
2022/01/09 13:49:56;;;;;;;;;;;9.90;91.00;;;;;;5019622;28;19967;-74
2022/01/09 13:52:23;;;;;;;;;;;9.90;91.00;;;;;;5019719;28;20361;-74
2022/01/09 13:55:01;;;;;;;;;;;9.90;91.20;;;;;;5019167;28;19921;-74
2022/01/09 13:57:28;;;;;;;;;;;9.90;91.20;;;;;;5019526;28;19910;-74
2022/01/09 13:59:54;;;;;;;;;;;9.90;91.10;;;;;;5017364;28;19916;-74
2022/01/09 14:02:20;;;;;;;;;;;9.90;91.10;;;;;;5019276;28;19909;-74
2022/01/09 14:05:06;;;;;;;;;;;9.90;91.10;;;;;;5019289;28;19913;-74
2022/01/09 14:07:32;;;;;;;;;;;9.90;91.10;;;;;;5019177;28;20331;-73
2022/01/09 14:09:57;;;;;;;;;;;9.90;91.20;;;;;;5019035;28;19909;-74
2022/01/09 14:12:24;;;;;;;;;;;9.90;91.20;;;;;;5019194;28;19910;-74
2022/01/09 14:14:50;;;;;;;;;;;9.90;91.20;;;;;;5019386;28;20008;-74
2022/01/09 14:17:24;;;;;;;;;;;9.80;91.10;;;;;;5019194;28;19914;-74
2022/01/09 14:19:50;;;;;;;;;;;9.80;91.10;;;;;;5019220;28;19910;-73
2022/01/09 14:22:16;;;;;;;;;;;9.90;91.20;;;;;;5018988;28;19916;-74
2022/01/09 14:24:58;;;;;;;;;;;9.90;91.30;;;;;;5018610;28;20292;-74
2022/01/09 14:27:24;;;;;;;;;;;9.80;91.40;;;;;;5018945;28;19988;-74
2022/01/09 14:29:50;;;;;;;;;;;9.90;91.50;;;;;;5019069;28;19910;-74